Terminal Aerodrome Forecast
Issued by NWS Cleveland, OH

Home | Current Version | Previous Version | Graphics & Text | Print | Product List | Glossary On
Versions: 1 2 3 4 5 6 7 8 9 10 11 12 13 14 15 16 17 18 19 20 21
462
FTUS41 KCLE 082340
TAFYNG
TAF
KYNG 082340Z 0900/0924 21009KT 5SM -SN BR SCT008 BKN025
      TEMPO 0903/0906 2SM -SN OVC012
     FM090800 24005KT 6SM -SN OVC012
     FM091700 26010KT P6SM -SHSN BKN020=

USA.gov is the U.S. government's official web portal to all federal, state and local government web resources and services.